Holiday — WDF4494 — position and weather

sailwx.info

Track history (hours):
 
Tides and Currents Weather Stations Pressure Air Temp Water Temp Dewpoint Dewpoint Depression Visibility Wind Speed Wind Dir Waves Ship Positions

Holiday

Owner: VOAKLANDER, TIM J, CARDIFF, CA. More information available from US FCC via Universal Licensing System and Coast Guard Vessel Documentation Center.

Last reported at 2018-Jan-07 03:20 UTC. Time now 2018-Jan-20 07:24 UTC.
Position N 32°40' W 117°23'.
Warning: this ship's position is 13 days out of date.

Length 24 m.

Type: Wing in ground effect craft. MMSI: 367452560.

Date/timePositionNaut miles runAvg speedWind from/ knotsBaromVisibWave heightAir tempDewpointWater temp
2018-Jan-07 03:20N 32°40' W 117°23'710.0
2018-Jan-07 02:41N 32°35' W 117°29'2 9.7
2018-Jan-07 02:30N 32°34' W 117°30'510.0
2018-Jan-07 02:00N 32°31' W 117°35'510.1
2018-Jan-07 01:30N 32°27' W 117°39'38 2.8
2018-Jan-06 11:58N 32°05' W 118°15'3 5.5
2018-Jan-06 11:29N 32°07' W 118°13'11 9.6
2018-Jan-06 10:22N 32°13' W 118°03'9 9.4
2018-Jan-06 09:24N 32°19' W 117°55'4 9.6
2018-Jan-06 09:00N 32°22' W 117°51'6 9.5
2018-Jan-06 08:25N 32°25' W 117°46'6 9.5
2018-Jan-06 07:50N 32°29' W 117°41'3 9.6
2018-Jan-06 07:29N 32°31' W 117°38'5 9.6
2018-Jan-06 07:00N 32°34' W 117°34'5 9.2
2018-Jan-06 06:30N 32°37' W 117°30'8 9.5
2018-Jan-06 05:43N 32°41' W 117°23'  
2017-Dec-31 14:13N 32°46' W 117°14'1 5.9
2017-Dec-31 14:00N 32°45' W 117°16'2 1.6
2017-Dec-31 12:47N 32°46' W 117°18'0 0.5
2017-Dec-31 12:27N 32°46' W 117°18'2 3.8
2017-Dec-31 11:59N 32°44' W 117°20'3 6.1
2017-Dec-31 11:30N 32°43' W 117°23'3 6.5
2017-Dec-31 11:00N 32°41' W 117°26'3 6.8
2017-Dec-31 10:30N 32°39' W 117°29'3 6.5
2017-Dec-31 10:00N 32°37' W 117°32'3 6.1
2017-Dec-31 09:30N 32°35' W 117°35'3 6.1
2017-Dec-31 09:00N 32°34' W 117°38'4 6.3
2017-Dec-31 08:20N 32°32' W 117°43'2 6.6
2017-Dec-31 07:59N 32°31' W 117°45'2 5.0
2017-Dec-31 07:29N 32°29' W 117°47'3 6.8
2017-Dec-31 07:00N 32°26' W 117°50'3 6.7
2017-Dec-31 06:29N 32°24' W 117°53'7 6.5
2017-Dec-31 05:25N 32°20' W 117°59'3 6.6
2017-Dec-31 04:55N 32°17' W 118°02'3 6.8
2017-Dec-31 04:30N 32°16' W 118°04'4 7.0
2017-Dec-31 03:53N 32°13' W 118°09'3 7.7
2017-Dec-31 03:30N 32°11' W 118°11'4 7.9
2017-Dec-31 03:00N 32°09' W 118°15'6 1.0
2017-Dec-30 20:55N 32°05' W 118°09'6 6.8
2017-Dec-30 19:58N 32°06' W 118°01'12 1.7
2017-Dec-30 12:44N 32°05' W 118°15'7 6.5
2017-Dec-30 11:38N 32°10' W 118°09'1 8.0
2017-Dec-30 11:30N 32°10' W 118°08'4 8.1
2017-Dec-30 11:00N 32°13' W 118°05'17 8.7
2017-Dec-30 09:03N 32°24' W 117°49'1 8.9
2017-Dec-30 08:55N 32°25' W 117°48'4 8.9
2017-Dec-30 08:30N 32°27' W 117°45'4 8.9
2017-Dec-30 08:00N 32°30' W 117°40'4 8.6
2017-Dec-30 07:30N 32°32' W 117°36'4 8.5
2017-Dec-30 07:00N 32°35' W 117°32'4 9.0
2017-Dec-30 06:30N 32°38' W 117°28'5 9.4
2017-Dec-30 06:00N 32°41' W 117°24'  
Track history (hours):
 
Tides and Currents Weather Stations Pressure Air Temp Water Temp Dewpoint Dewpoint Depression Visibility Wind Speed Wind Dir Waves Ship Positions

Holiday

Owner: VOAKLANDER, TIM J, CARDIFF, CA. More information available from US FCC via Universal Licensing System and Coast Guard Vessel Documentation Center.

Last reported at 2018-Jan-07 03:20 UTC. Time now 2018-Jan-20 07:24 UTC.
Position N 32°40' W 117°23'.
Warning: this ship's position is 13 days out of date.

Length 24 m.

Type: Wing in ground effect craft. MMSI: 367452560.

Date/timePositionNaut miles runAvg speedWind from/ knotsBaromVisibWave heightAir tempDewpointWater temp
2018-Jan-07 03:20N 32°40' W 117°23'710.0
2018-Jan-07 02:41N 32°35' W 117°29'2 9.7
2018-Jan-07 02:30N 32°34' W 117°30'510.0
2018-Jan-07 02:00N 32°31' W 117°35'510.1
2018-Jan-07 01:30N 32°27' W 117°39'38 2.8
2018-Jan-06 11:58N 32°05' W 118°15'3 5.5
2018-Jan-06 11:29N 32°07' W 118°13'11 9.6
2018-Jan-06 10:22N 32°13' W 118°03'9 9.4
2018-Jan-06 09:24N 32°19' W 117°55'4 9.6
2018-Jan-06 09:00N 32°22' W 117°51'6 9.5
2018-Jan-06 08:25N 32°25' W 117°46'6 9.5
2018-Jan-06 07:50N 32°29' W 117°41'3 9.6
2018-Jan-06 07:29N 32°31' W 117°38'5 9.6
2018-Jan-06 07:00N 32°34' W 117°34'5 9.2
2018-Jan-06 06:30N 32°37' W 117°30'8 9.5
2018-Jan-06 05:43N 32°41' W 117°23'  
2017-Dec-31 14:13N 32°46' W 117°14'1 5.9
2017-Dec-31 14:00N 32°45' W 117°16'2 1.6
2017-Dec-31 12:47N 32°46' W 117°18'0 0.5
2017-Dec-31 12:27N 32°46' W 117°18'2 3.8
2017-Dec-31 11:59N 32°44' W 117°20'3 6.1
2017-Dec-31 11:30N 32°43' W 117°23'3 6.5
2017-Dec-31 11:00N 32°41' W 117°26'3 6.8
2017-Dec-31 10:30N 32°39' W 117°29'3 6.5
2017-Dec-31 10:00N 32°37' W 117°32'3 6.1
2017-Dec-31 09:30N 32°35' W 117°35'3 6.1
2017-Dec-31 09:00N 32°34' W 117°38'4 6.3
2017-Dec-31 08:20N 32°32' W 117°43'2 6.6
2017-Dec-31 07:59N 32°31' W 117°45'2 5.0
2017-Dec-31 07:29N 32°29' W 117°47'3 6.8
2017-Dec-31 07:00N 32°26' W 117°50'3 6.7
2017-Dec-31 06:29N 32°24' W 117°53'7 6.5
2017-Dec-31 05:25N 32°20' W 117°59'3 6.6
2017-Dec-31 04:55N 32°17' W 118°02'3 6.8
2017-Dec-31 04:30N 32°16' W 118°04'4 7.0
2017-Dec-31 03:53N 32°13' W 118°09'3 7.7
2017-Dec-31 03:30N 32°11' W 118°11'4 7.9
2017-Dec-31 03:00N 32°09' W 118°15'6 1.0
2017-Dec-30 20:55N 32°05' W 118°09'6 6.8
2017-Dec-30 19:58N 32°06' W 118°01'12 1.7
2017-Dec-30 12:44N 32°05' W 118°15'7 6.5
2017-Dec-30 11:38N 32°10' W 118°09'1 8.0
2017-Dec-30 11:30N 32°10' W 118°08'4 8.1
2017-Dec-30 11:00N 32°13' W 118°05'17 8.7
2017-Dec-30 09:03N 32°24' W 117°49'1 8.9
2017-Dec-30 08:55N 32°25' W 117°48'4 8.9
2017-Dec-30 08:30N 32°27' W 117°45'4 8.9
2017-Dec-30 08:00N 32°30' W 117°40'4 8.6
2017-Dec-30 07:30N 32°32' W 117°36'4 8.5
2017-Dec-30 07:00N 32°35' W 117°32'4 9.0
2017-Dec-30 06:30N 32°38' W 117°28'5 9.4
2017-Dec-30 06:00N 32°41' W 117°24'  

Dump ship's entire track history